Time;durP1;ratioP1;P1;durP2;ratioP2;P2;SDS_P1;SDS_P2;PMS_P1;PMS_P2;Temp;Humidity;BMP_temperature;BMP_pressure;BME280_temperature;BME280_humidity;BME280_pressure;Samples;Min_cycle;Max_cycle;Signal;HPM_P1;HPM_P2
2022/08/13 00:01:20;;;;;;;;;;;17.20;92.60;;;;;;5081478;28;19931;-59
2022/08/13 00:03:46;;;;;;;;;;;17.20;92.70;;;;;;5080084;28;19928;-60
2022/08/13 00:06:12;;;;;;;;;;;17.20;93.10;;;;;;5078977;28;19920;-59
2022/08/13 00:08:39;;;;;;;;;;;17.10;93.20;;;;;;5074472;28;20358;-60
2022/08/13 00:11:05;;;;;;;;;;;17.10;93.90;;;;;;5082083;28;19971;-60
2022/08/13 00:13:31;;;;;;;;;;;17.10;93.90;;;;;;5086565;28;19920;-59
2022/08/13 00:15:59;;;;;;;;;;;17.10;93.70;;;;;;5085699;28;19924;-59
2022/08/13 00:18:25;;;;;;;;;;;17.10;93.80;;;;;;5088080;28;19920;-58
2022/08/13 00:20:53;;;;;;;;;;;17.10;93.60;;;;;;5086619;28;19947;-60
2022/08/13 00:23:19;;;;;;;;;;;17.10;93.60;;;;;;5089865;28;19924;-59
2022/08/13 00:25:46;;;;;;;;;;;17.00;93.80;;;;;;5089550;28;20372;-59
2022/08/13 00:28:16;;;;;;;;;;;17.00;93.70;;;;;;5088137;28;19931;-59
2022/08/13 00:30:42;;;;;;;;;;;17.00;94.00;;;;;;5085501;28;20035;-59
2022/08/13 00:33:12;;;;;;;;;;;17.00;94.00;;;;;;5087864;28;19935;-60
2022/08/13 00:35:41;;;;;;;;;;;17.00;94.20;;;;;;5088083;28;19924;-60
2022/08/13 00:38:15;;;;;;;;;;;16.90;94.40;;;;;;5084490;28;19924;-59
2022/08/13 00:40:45;;;;;;;;;;;16.90;94.40;;;;;;5090954;28;20412;-60
2022/08/13 00:43:11;;;;;;;;;;;16.80;94.80;;;;;;5086478;28;20027;-58
2022/08/13 00:45:36;;;;;;;;;;;16.80;94.80;;;;;;5086590;28;19999;-59
2022/08/13 00:50:50;;;;;;;;;;;16.70;95.30;;;;;;5079511;28;19931;-58
2022/08/13 00:53:17;;;;;;;;;;;16.60;95.20;;;;;;5088772;28;19928;-60
2022/08/13 00:55:45;;;;;;;;;;;16.60;95.40;;;;;;5089022;28;19924;-59
2022/08/13 00:58:15;;;;;;;;;;;16.50;95.40;;;;;;5086767;28;19928;-59
2022/08/13 01:00:41;;;;;;;;;;;16.50;95.60;;;;;;5085738;28;19946;-59
2022/08/13 01:03:08;;;;;;;;;;;16.50;95.80;;;;;;5085622;28;19928;-58
2022/08/13 01:05:34;;;;;;;;;;;16.40;95.90;;;;;;5085674;28;19943;-59
2022/08/13 01:08:00;;;;;;;;;;;16.40;96.40;;;;;;5088085;28;19924;-59
2022/08/13 01:10:25;;;;;;;;;;;16.40;96.30;;;;;;5087068;28;20406;-59
2022/08/13 01:12:52;;;;;;;;;;;16.40;96.30;;;;;;5087640;28;20011;-58
2022/08/13 01:15:18;;;;;;;;;;;16.40;96.10;;;;;;5087097;28;19973;-59
2022/08/13 01:17:45;;;;;;;;;;;16.40;97.00;;;;;;5086800;28;20715;-58
2022/08/13 01:20:14;;;;;;;;;;;16.30;97.20;;;;;;5083338;28;19958;-59
2022/08/13 01:22:42;;;;;;;;;;;16.20;96.60;;;;;;5078666;28;19932;-59
2022/08/13 01:25:08;;;;;;;;;;;16.20;97.90;;;;;;5086931;28;19926;-60
2022/08/13 01:27:36;;;;;;;;;;;16.10;96.90;;;;;;5085312;28;20271;-59
2022/08/13 01:30:05;;;;;;;;;;;16.10;97.20;;;;;;5083246;28;19956;-60
2022/08/13 01:32:31;;;;;;;;;;;16.00;97.70;;;;;;5119833;28;19928;-59
2022/08/13 01:35:00;;;;;;;;;;;16.10;97.90;;;;;;5083740;28;20372;-59
2022/08/13 01:37:25;;;;;;;;;;;16.00;97.90;;;;;;5088397;28;20014;-58
2022/08/13 01:39:52;;;;;;;;;;;15.90;98.20;;;;;;5086594;28;20399;-59
2022/08/13 01:42:20;;;;;;;;;;;16.00;98.30;;;;;;5121877;28;19930;-60
2022/08/13 01:44:49;;;;;;;;;;;16.00;98.10;;;;;;5089380;28;19967;-59
2022/08/13 01:52:45;;;;;;;;;;;15.90;98.30;;;;;;5083910;28;19920;-59
2022/08/13 01:55:11;;;;;;;;;;;15.80;98.40;;;;;;5085649;28;19974;-60
2022/08/13 01:57:41;;;;;;;;;;;15.80;98.50;;;;;;5090080;28;19920;-59
2022/08/13 02:00:13;;;;;;;;;;;15.70;98.30;;;;;;5086645;28;19923;-60
2022/08/13 02:02:42;;;;;;;;;;;15.70;98.60;;;;;;5088819;28;19982;-59
2022/08/13 02:05:10;;;;;;;;;;;15.70;98.70;;;;;;5077328;28;19963;-59
2022/08/13 02:07:38;;;;;;;;;;;15.70;98.70;;;;;;5084948;28;19920;-59
2022/08/13 02:10:04;;;;;;;;;;;15.70;99.10;;;;;;5085715;28;19926;-59
2022/08/13 02:12:29;;;;;;;;;;;15.60;99.00;;;;;;5089278;28;19920;-59
2022/08/13 02:14:56;;;;;;;;;;;15.60;98.90;;;;;;5086948;28;19975;-59
2022/08/13 02:17:25;;;;;;;;;;;15.60;99.50;;;;;;5088094;28;19924;-59
2022/08/13 02:19:56;;;;;;;;;;;15.50;99.40;;;;;;5084793;28;20303;-60
2022/08/13 02:22:23;;;;;;;;;;;15.50;99.50;;;;;;5088387;28;20405;-59
2022/08/13 02:24:53;;;;;;;;;;;15.50;99.90;;;;;;5086932;28;19920;-58
2022/08/13 02:27:21;;;;;;;;;;;15.50;99.60;;;;;;5089449;28;19920;-59
2022/08/13 02:29:49;;;;;;;;;;;15.50;99.80;;;;;;5089380;28;19970;-60
2022/08/13 02:32:16;;;;;;;;;;;15.40;99.80;;;;;;5091125;28;19926;-59
2022/08/13 02:34:43;;;;;;;;;;;15.50;99.90;;;;;;5090549;28;19924;-59
2022/08/13 02:37:10;;;;;;;;;;;15.40;99.90;;;;;;5087119;28;19924;-59
2022/08/13 02:39:36;;;;;;;;;;;15.40;99.90;;;;;;5089893;28;19928;-59
2022/08/13 02:42:01;;;;;;;;;;;15.40;99.90;;;;;;5089930;28;20576;-59
2022/08/13 02:44:27;;;;;;;;;;;15.40;99.90;;;;;;5089967;28;19932;-59
2022/08/13 02:46:52;;;;;;;;;;;15.40;99.90;;;;;;5092025;28;20534;-60
2022/08/13 02:49:21;;;;;;;;;;;15.40;99.90;;;;;;5080626;28;19920;-59
2022/08/13 02:51:47;;;;;;;;;;;15.40;99.90;;;;;;5077977;28;19925;-59
2022/08/13 02:54:17;;;;;;;;;;;15.30;99.90;;;;;;5089144;28;19924;-59
2022/08/13 02:56:43;;;;;;;;;;;15.30;99.90;;;;;;5084596;28;19997;-60
2022/08/13 02:59:10;;;;;;;;;;;15.30;99.90;;;;;;5092746;28;20263;-59
2022/08/13 03:01:39;;;;;;;;;;;15.30;99.80;;;;;;5090064;28;19927;-58
2022/08/13 03:04:05;;;;;;;;;;;15.30;99.90;;;;;;5090010;28;20261;-59
2022/08/13 03:06:31;;;;;;;;;;;15.30;99.90;;;;;;5088233;28;19920;-59
2022/08/13 03:08:56;;;;;;;;;;;15.30;99.90;;;;;;5085687;28;19924;-60
2022/08/13 03:11:22;;;;;;;;;;;15.30;99.90;;;;;;5091860;28;20486;-59
2022/08/13 03:13:57;;;;;;;;;;;15.30;99.90;;;;;;5088499;28;19920;-59
2022/08/13 03:16:24;;;;;;;;;;;15.30;99.90;;;;;;5092198;28;19931;-58
2022/08/13 03:18:51;;;;;;;;;;;15.20;99.90;;;;;;5090811;28;20001;-59
2022/08/13 03:21:18;;;;;;;;;;;15.30;99.90;;;;;;5069843;28;20528;-59
2022/08/13 03:23:45;;;;;;;;;;;15.20;99.90;;;;;;5085144;28;19981;-60
2022/08/13 03:26:11;;;;;;;;;;;15.20;99.20;;;;;;5088280;28;19928;-59
2022/08/13 03:28:38;;;;;;;;;;;15.20;99.90;;;;;;5091915;28;19920;-59
2022/08/13 03:31:05;;;;;;;;;;;15.10;99.90;;;;;;5091069;28;19931;-60
2022/08/13 03:33:32;;;;;;;;;;;15.10;99.90;;;;;;5088962;28;19931;-59
2022/08/13 03:35:58;;;;;;;;;;;15.10;99.90;;;;;;5087829;28;19931;-59
2022/08/13 03:38:23;;;;;;;;;;;15.10;99.90;;;;;;5085814;28;19923;-59
2022/08/13 03:41:01;;;;;;;;;;;15.10;99.90;;;;;;5089184;28;19924;-60
2022/08/13 03:43:27;;;;;;;;;;;15.10;99.90;;;;;;5085907;28;19924;-60
2022/08/13 03:45:54;;;;;;;;;;;15.10;99.90;;;;;;5085633;28;20052;-60
2022/08/13 03:48:20;;;;;;;;;;;15.00;99.90;;;;;;5086671;28;19972;-60
2022/08/13 03:50:46;;;;;;;;;;;15.00;99.90;;;;;;5087478;28;19928;-59
2022/08/13 03:53:12;;;;;;;;;;;15.00;99.90;;;;;;5087866;28;19920;-59
2022/08/13 03:55:39;;;;;;;;;;;14.90;99.90;;;;;;5089595;28;19924;-59
2022/08/13 03:58:06;;;;;;;;;;;14.90;99.90;;;;;;5084644;28;19935;-59
2022/08/13 04:00:35;;;;;;;;;;;14.90;99.90;;;;;;5090375;28;19921;-59
2022/08/13 04:03:12;;;;;;;;;;;14.90;99.90;;;;;;5086910;28;20030;-59
2022/08/13 04:05:37;;;;;;;;;;;14.90;99.90;;;;;;5087211;28;19924;-60
2022/08/13 04:08:04;;;;;;;;;;;14.90;99.90;;;;;;5086831;28;19927;-60
2022/08/13 04:10:29;;;;;;;;;;;14.90;99.90;;;;;;5088798;28;20025;-59
2022/08/13 04:12:55;;;;;;;;;;;14.90;99.90;;;;;;5088744;28;20030;-60
2022/08/13 04:15:20;;;;;;;;;;;14.90;99.90;;;;;;5117922;27;19927;-59
2022/08/13 04:17:46;;;;;;;;;;;14.90;99.90;;;;;;5089340;28;20438;-60
2022/08/13 04:20:12;;;;;;;;;;;14.80;99.90;;;;;;5086430;28;20065;-60
2022/08/13 04:22:38;;;;;;;;;;;14.80;99.90;;;;;;5086420;28;19972;-58
2022/08/13 04:25:07;;;;;;;;;;;14.80;99.90;;;;;;5091202;28;20450;-58
2022/08/13 04:27:34;;;;;;;;;;;14.80;99.90;;;;;;5089388;28;19977;-59
2022/08/13 04:29:59;;;;;;;;;;;14.70;99.90;;;;;;5089900;28;19955;-59
2022/08/13 04:32:25;;;;;;;;;;;14.70;99.90;;;;;;5088811;28;20360;-60
2022/08/13 04:34:51;;;;;;;;;;;14.80;99.90;;;;;;5081446;28;19920;-60
2022/08/13 04:37:16;;;;;;;;;;;14.70;99.90;;;;;;5088299;28;19924;-60
2022/08/13 04:39:42;;;;;;;;;;;14.70;99.90;;;;;;5085686;28;19928;-59
2022/08/13 04:42:08;;;;;;;;;;;14.70;99.90;;;;;;5088137;28;19928;-59
2022/08/13 04:44:34;;;;;;;;;;;14.60;99.90;;;;;;5087606;28;19939;-60
2022/08/13 04:47:00;;;;;;;;;;;14.60;99.90;;;;;;5087259;28;19928;-60
2022/08/13 04:49:25;;;;;;;;;;;14.70;99.90;;;;;;5088950;28;19953;-60
2022/08/13 04:51:51;;;;;;;;;;;14.70;99.90;;;;;;5084983;28;19928;-59
2022/08/13 04:54:17;;;;;;;;;;;14.70;99.90;;;;;;5085388;28;19928;-59
2022/08/13 04:56:43;;;;;;;;;;;14.70;99.90;;;;;;5082692;28;19920;-59
2022/08/13 04:59:08;;;;;;;;;;;14.70;99.90;;;;;;5087906;28;19920;-60
2022/08/13 05:01:34;;;;;;;;;;;14.70;99.90;;;;;;5084922;28;20667;-58
2022/08/13 05:03:59;;;;;;;;;;;14.80;99.90;;;;;;5082903;28;19932;-59
2022/08/13 05:06:26;;;;;;;;;;;14.90;99.90;;;;;;5087052;28;19920;-60
2022/08/13 05:08:51;;;;;;;;;;;14.90;99.90;;;;;;5087348;28;19928;-58
2022/08/13 05:11:18;;;;;;;;;;;14.90;99.90;;;;;;5089282;28;20375;-59
2022/08/13 05:13:45;;;;;;;;;;;15.00;99.90;;;;;;5087163;28;20485;-59
2022/08/13 05:16:15;;;;;;;;;;;15.00;99.90;;;;;;5086787;28;20291;-59
2022/08/13 05:18:45;;;;;;;;;;;15.00;99.90;;;;;;5086080;28;19935;-59
2022/08/13 05:21:11;;;;;;;;;;;15.10;99.90;;;;;;5086064;28;19924;-59
2022/08/13 05:23:38;;;;;;;;;;;15.20;99.90;;;;;;5074757;28;20015;-60
2022/08/13 05:26:04;;;;;;;;;;;15.30;99.90;;;;;;5085003;28;20015;-60
2022/08/13 05:28:31;;;;;;;;;;;15.30;99.90;;;;;;5086766;28;20014;-59
2022/08/13 05:30:57;;;;;;;;;;;15.50;99.90;;;;;;5091572;28;20395;-59
2022/08/13 05:33:24;;;;;;;;;;;15.50;99.90;;;;;;5084612;28;19923;-58
2022/08/13 05:35:55;;;;;;;;;;;15.70;99.90;;;;;;5084210;28;19924;-59
2022/08/13 05:38:22;;;;;;;;;;;15.80;99.90;;;;;;5081613;28;20074;-60
2022/08/13 05:40:49;;;;;;;;;;;16.00;99.90;;;;;;5085081;28;20015;-59
2022/08/13 05:43:15;;;;;;;;;;;16.20;99.50;;;;;;5088636;28;19939;-59
2022/08/13 05:45:42;;;;;;;;;;;16.40;99.50;;;;;;5084838;28;19989;-59
2022/08/13 05:48:07;;;;;;;;;;;16.50;98.70;;;;;;5086854;28;20121;-59
2022/08/13 05:50:34;;;;;;;;;;;16.70;98.00;;;;;;5085696;28;20024;-58
2022/08/13 05:53:09;;;;;;;;;;;16.90;97.20;;;;;;5085503;28;19920;-60
2022/08/13 05:55:35;;;;;;;;;;;17.00;96.70;;;;;;5088186;28;19924;-60
2022/08/13 05:58:02;;;;;;;;;;;17.30;96.50;;;;;;5087833;28;20133;-59
2022/08/13 06:03:29;;;;;;;;;;;17.70;95.40;;;;;;5084798;28;20284;-59
2022/08/13 06:05:56;;;;;;;;;;;17.90;94.90;;;;;;5089452;28;19920;-59
2022/08/13 06:08:28;;;;;;;;;;;18.20;94.00;;;;;;5090597;28;20025;-61
2022/08/13 06:10:54;;;;;;;;;;;18.40;93.00;;;;;;5089807;28;20011;-59
2022/08/13 06:13:19;;;;;;;;;;;18.60;91.90;;;;;;5088711;28;19948;-59
2022/08/13 06:15:57;;;;;;;;;;;18.80;91.90;;;;;;5089026;28;20391;-60
2022/08/13 06:18:24;;;;;;;;;;;19.00;91.40;;;;;;5087779;28;19920;-59
2022/08/13 06:20:51;;;;;;;;;;;19.20;90.80;;;;;;5090515;28;20608;-60
2022/08/13 06:23:18;;;;;;;;;;;19.40;90.80;;;;;;5087314;28;20282;-58
2022/08/13 06:25:43;;;;;;;;;;;19.60;90.20;;;;;;5065497;28;20452;-59
2022/08/13 06:28:10;;;;;;;;;;;19.80;90.10;;;;;;5086304;28;19923;-59
2022/08/13 06:30:37;;;;;;;;;;;20.00;88.30;;;;;;5086454;28;19919;-60
2022/08/13 06:33:03;;;;;;;;;;;20.20;87.70;;;;;;5088421;28;19923;-60
2022/08/13 06:35:31;;;;;;;;;;;20.40;87.30;;;;;;5087932;28;20331;-60
2022/08/13 06:37:56;;;;;;;;;;;20.60;85.80;;;;;;5091166;28;19920;-60
2022/08/13 06:40:22;;;;;;;;;;;20.80;86.00;;;;;;5093258;28;19927;-59
2022/08/13 06:42:48;;;;;;;;;;;21.00;85.70;;;;;;5089216;28;20021;-59
2022/08/13 06:45:14;;;;;;;;;;;21.30;82.70;;;;;;5089253;28;19935;-60
2022/08/13 06:47:40;;;;;;;;;;;21.40;83.20;;;;;;5091645;28;20015;-60
2022/08/13 06:50:10;;;;;;;;;;;21.70;81.10;;;;;;5086724;28;19924;-61
2022/08/13 06:52:36;;;;;;;;;;;21.90;82.10;;;;;;5090397;28;19920;-60
2022/08/13 06:55:01;;;;;;;;;;;22.20;80.10;;;;;;5091967;28;19924;-60
2022/08/13 06:57:30;;;;;;;;;;;22.40;79.10;;;;;;5094746;28;20279;-61
2022/08/13 06:59:57;;;;;;;;;;;22.60;77.80;;;;;;5089531;28;19920;-60
2022/08/13 07:02:24;;;;;;;;;;;22.90;76.20;;;;;;5088658;28;19928;-60
2022/08/13 07:04:49;;;;;;;;;;;23.00;76.00;;;;;;5121111;27;19949;-60
2022/08/13 07:07:17;;;;;;;;;;;23.20;76.40;;;;;;5088715;28;20023;-59
2022/08/13 07:09:44;;;;;;;;;;;23.40;73.90;;;;;;5091656;28;19923;-60
2022/08/13 07:12:10;;;;;;;;;;;23.70;71.60;;;;;;5090077;28;19920;-61
2022/08/13 07:14:36;;;;;;;;;;;23.90;70.10;;;;;;5083829;28;19920;-61
2022/08/13 07:17:01;;;;;;;;;;;24.00;68.40;;;;;;5092240;28;20011;-60
2022/08/13 07:19:27;;;;;;;;;;;24.20;67.80;;;;;;5087658;28;19920;-60
2022/08/13 07:21:54;;;;;;;;;;;24.50;63.80;;;;;;5087520;28;19924;-62
2022/08/13 07:24:19;;;;;;;;;;;24.70;63.40;;;;;;5086529;28;20264;-60
2022/08/13 07:26:45;;;;;;;;;;;24.80;63.90;;;;;;5090148;28;19927;-61
2022/08/13 07:29:12;;;;;;;;;;;25.00;63.90;;;;;;5090256;28;19920;-60
2022/08/13 07:31:40;;;;;;;;;;;25.20;63.70;;;;;;5088017;28;20048;-60
2022/08/13 07:34:06;;;;;;;;;;;25.40;60.00;;;;;;5088186;28;20449;-60
2022/08/13 07:36:35;;;;;;;;;;;25.50;61.80;;;;;;5089876;28;19928;-60
2022/08/13 07:39:05;;;;;;;;;;;25.80;59.30;;;;;;5083634;28;19928;-60
2022/08/13 07:41:31;;;;;;;;;;;25.90;58.90;;;;;;5085717;28;19920;-61
2022/08/13 07:43:58;;;;;;;;;;;26.10;59.10;;;;;;5079831;28;19932;-61
2022/08/13 07:46:24;;;;;;;;;;;26.40;58.80;;;;;;5073283;28;19930;-62
2022/08/13 07:48:52;;;;;;;;;;;26.70;57.00;;;;;;5074170;28;20578;-60
2022/08/13 07:51:19;;;;;;;;;;;26.80;57.50;;;;;;5086028;28;20873;-60
2022/08/13 07:53:46;;;;;;;;;;;27.20;56.90;;;;;;5086586;28;19927;-61
2022/08/13 07:56:12;;;;;;;;;;;27.40;54.80;;;;;;5082291;28;19924;-60
2022/08/13 07:58:37;;;;;;;;;;;27.70;55.70;;;;;;5088767;28;19927;-61
2022/08/13 08:01:04;;;;;;;;;;;27.90;54.00;;;;;;5091536;28;19920;-60
2022/08/13 08:03:32;;;;;;;;;;;28.10;51.10;;;;;;5085992;28;20019;-61
2022/08/13 08:05:58;;;;;;;;;;;28.10;50.10;;;;;;5085632;28;19924;-59
2022/08/13 08:08:24;;;;;;;;;;;28.30;51.60;;;;;;5088809;28;19924;-61
2022/08/13 08:10:51;;;;;;;;;;;28.60;51.60;;;;;;5088509;28;19932;-61
2022/08/13 08:13:16;;;;;;;;;;;28.90;51.30;;;;;;5088982;28;19942;-61
2022/08/13 08:15:45;;;;;;;;;;;29.20;50.40;;;;;;5089238;28;19935;-61
2022/08/13 08:18:11;;;;;;;;;;;29.50;49.10;;;;;;5091262;28;19959;-61
2022/08/13 08:20:36;;;;;;;;;;;29.50;47.40;;;;;;5088972;28;19962;-60
2022/08/13 08:23:02;;;;;;;;;;;29.40;46.50;;;;;;5087287;28;19950;-61
2022/08/13 08:25:28;;;;;;;;;;;29.90;48.70;;;;;;5083464;28;19927;-60
2022/08/13 08:27:53;;;;;;;;;;;30.00;45.60;;;;;;5084156;28;20333;-60
2022/08/13 08:30:20;;;;;;;;;;;30.30;45.60;;;;;;5090559;28;19920;-60
2022/08/13 08:32:51;;;;;;;;;;;30.60;44.80;;;;;;5088691;28;19930;-61
2022/08/13 08:35:17;;;;;;;;;;;30.90;44.20;;;;;;5080328;28;19927;-61
2022/08/13 08:43:11;;;;;;;;;;;31.20;42.40;;;;;;5088424;28;19979;-60
2022/08/13 08:45:38;;;;;;;;;;;31.30;42.00;;;;;;5089269;28;19965;-60
2022/08/13 08:48:04;;;;;;;;;;;31.70;41.80;;;;;;5086615;28;19924;-61
2022/08/13 08:50:29;;;;;;;;;;;31.90;42.20;;;;;;5079871;28;19924;-60
2022/08/13 08:55:42;;;;;;;;;;;32.60;39.70;;;;;;5086710;28;19928;-62
2022/08/13 08:58:10;;;;;;;;;;;32.80;39.80;;;;;;5083324;28;19924;-61
2022/08/13 09:00:38;;;;;;;;;;;33.20;39.00;;;;;;5086591;28;19962;-62
2022/08/13 09:03:04;;;;;;;;;;;32.90;39.60;;;;;;5088866;28;19928;-61
2022/08/13 09:05:30;;;;;;;;;;;33.50;40.60;;;;;;5083337;28;19931;-61
2022/08/13 09:07:56;;;;;;;;;;;33.80;38.60;;;;;;5086463;28;19925;-62
2022/08/13 09:10:22;;;;;;;;;;;34.00;38.20;;;;;;5087136;28;19969;-62
2022/08/13 09:12:50;;;;;;;;;;;34.60;38.30;;;;;;5089048;28;19966;-61
2022/08/13 09:15:21;;;;;;;;;;;34.60;36.70;;;;;;5079958;28;19924;-61
2022/08/13 09:17:47;;;;;;;;;;;34.80;38.10;;;;;;5085512;28;19931;-62
2022/08/13 09:20:14;;;;;;;;;;;35.10;37.00;;;;;;5086678;28;19920;-61
2022/08/13 09:22:41;;;;;;;;;;;35.00;35.00;;;;;;5083435;28;20316;-61
2022/08/13 09:25:08;;;;;;;;;;;35.10;35.60;;;;;;5083712;28;19931;-61
2022/08/13 09:27:35;;;;;;;;;;;34.80;36.60;;;;;;5089040;28;19928;-60
2022/08/13 09:30:01;;;;;;;;;;;34.10;35.80;;;;;;5085985;28;19924;-61
2022/08/13 09:32:30;;;;;;;;;;;33.90;37.20;;;;;;5088616;28;19946;-62
2022/08/13 09:34:55;;;;;;;;;;;33.60;38.00;;;;;;5085578;28;20363;-61
2022/08/13 09:37:22;;;;;;;;;;;33.30;36.50;;;;;;5091292;28;19927;-62
2022/08/13 09:39:58;;;;;;;;;;;32.90;36.60;;;;;;5092957;28;19920;-61
2022/08/13 09:42:28;;;;;;;;;;;32.90;36.00;;;;;;5090318;28;20381;-60
2022/08/13 09:44:54;;;;;;;;;;;33.60;35.30;;;;;;5094256;28;19973;-61
2022/08/13 09:47:20;;;;;;;;;;;33.80;34.20;;;;;;5088523;28;19924;-61
2022/08/13 09:49:46;;;;;;;;;;;33.70;34.40;;;;;;5081725;28;19924;-63
2022/08/13 09:52:11;;;;;;;;;;;33.50;33.80;;;;;;5089638;28;19973;-62
2022/08/13 09:54:41;;;;;;;;;;;32.90;35.20;;;;;;5091549;28;19928;-61
2022/08/13 09:57:06;;;;;;;;;;;32.50;36.90;;;;;;5092448;28;20383;-60
2022/08/13 09:59:33;;;;;;;;;;;32.20;35.80;;;;;;5089650;28;19926;-62
2022/08/13 10:02:05;;;;;;;;;;;31.90;36.10;;;;;;5090491;28;20273;-60
2022/08/13 10:04:32;;;;;;;;;;;31.80;35.40;;;;;;5093328;28;19928;-60
2022/08/13 10:06:58;;;;;;;;;;;31.90;35.50;;;;;;5090852;28;19924;-62
2022/08/13 10:09:26;;;;;;;;;;;32.20;34.80;;;;;;5088846;28;19969;-62
2022/08/13 10:11:53;;;;;;;;;;;32.60;35.30;;;;;;5092600;28;19959;-62
2022/08/13 10:14:18;;;;;;;;;;;33.30;35.00;;;;;;5094115;28;19929;-61
2022/08/13 10:16:44;;;;;;;;;;;33.60;32.70;;;;;;5091446;28;19920;-60
2022/08/13 10:19:09;;;;;;;;;;;33.60;33.20;;;;;;5089162;28;20425;-61
2022/08/13 10:21:35;;;;;;;;;;;33.40;33.80;;;;;;5123409;27;19924;-60
2022/08/13 10:24:00;;;;;;;;;;;33.00;34.60;;;;;;5093112;28;20383;-61
2022/08/13 10:26:25;;;;;;;;;;;32.50;34.80;;;;;;5091496;28;19927;-62
2022/08/13 10:28:51;;;;;;;;;;;32.20;35.60;;;;;;5080230;28;20420;-61
2022/08/13 10:31:17;;;;;;;;;;;31.90;34.60;;;;;;5123045;27;20030;-61
2022/08/13 10:33:42;;;;;;;;;;;31.50;35.60;;;;;;5090477;28;20272;-60
2022/08/13 10:36:10;;;;;;;;;;;31.10;35.60;;;;;;5089775;28;20014;-62
2022/08/13 10:38:35;;;;;;;;;;;31.10;35.80;;;;;;5085372;28;19928;-61
2022/08/13 10:41:06;;;;;;;;;;;31.10;36.40;;;;;;5085273;28;20279;-61
2022/08/13 10:43:31;;;;;;;;;;;31.00;36.40;;;;;;5086895;28;19930;-60
2022/08/13 10:45:58;;;;;;;;;;;30.90;35.50;;;;;;5088253;28;19920;-60
2022/08/13 10:48:25;;;;;;;;;;;30.80;36.30;;;;;;5088487;28;19927;-61
2022/08/13 10:50:52;;;;;;;;;;;30.70;36.20;;;;;;5121614;27;19928;-62
2022/08/13 10:56:03;;;;;;;;;;;30.60;36.20;;;;;;5123999;27;19928;-61
2022/08/13 10:58:29;;;;;;;;;;;30.30;36.10;;;;;;5088429;28;20315;-60
2022/08/13 11:00:55;;;;;;;;;;;30.40;36.30;;;;;;5086292;28;19920;-60
2022/08/13 11:03:20;;;;;;;;;;;30.40;35.80;;;;;;5088936;28;19932;-61
2022/08/13 11:05:47;;;;;;;;;;;30.30;35.70;;;;;;5079762;28;20720;-61
2022/08/13 11:08:13;;;;;;;;;;;30.30;36.60;;;;;;5089482;28;20319;-60
2022/08/13 11:10:39;;;;;;;;;;;30.40;36.10;;;;;;5088017;28;19927;-60
2022/08/13 11:13:05;;;;;;;;;;;30.40;36.20;;;;;;5080972;28;19927;-60
2022/08/13 11:15:31;;;;;;;;;;;30.30;35.80;;;;;;5088436;28;19924;-61
2022/08/13 11:17:57;;;;;;;;;;;30.10;35.90;;;;;;5084683;28;19920;-61
2022/08/13 11:20:24;;;;;;;;;;;30.20;36.50;;;;;;5087101;28;20336;-62
2022/08/13 11:22:51;;;;;;;;;;;30.30;36.40;;;;;;5085031;28;19932;-61
2022/08/13 11:25:17;;;;;;;;;;;30.20;36.10;;;;;;5090312;28;19935;-60
2022/08/13 11:27:43;;;;;;;;;;;30.40;35.20;;;;;;5092701;28;20401;-61
2022/08/13 11:30:09;;;;;;;;;;;30.30;35.70;;;;;;5121393;27;19979;-61
2022/08/13 11:32:35;;;;;;;;;;;30.20;35.90;;;;;;5126569;27;20011;-62
2022/08/13 11:35:00;;;;;;;;;;;30.20;36.30;;;;;;5089818;28;19928;-60
2022/08/13 11:37:26;;;;;;;;;;;30.00;36.10;;;;;;5089970;28;19921;-60
2022/08/13 11:39:51;;;;;;;;;;;30.00;36.10;;;;;;5091407;28;19928;-60
2022/08/13 11:42:17;;;;;;;;;;;29.90;35.40;;;;;;5090308;28;19970;-60
2022/08/13 11:44:42;;;;;;;;;;;29.90;35.60;;;;;;5091860;28;19931;-61
2022/08/13 11:47:08;;;;;;;;;;;30.10;36.30;;;;;;5088753;28;19920;-61
2022/08/13 11:49:33;;;;;;;;;;;30.20;35.80;;;;;;5089119;28;20333;-61
2022/08/13 11:51:59;;;;;;;;;;;30.00;35.60;;;;;;5089857;28;19924;-61
2022/08/13 11:54:24;;;;;;;;;;;30.10;36.50;;;;;;5089904;28;20030;-62
2022/08/13 11:56:50;;;;;;;;;;;30.20;36.00;;;;;;5125099;27;19924;-60
2022/08/13 11:59:15;;;;;;;;;;;30.10;36.70;;;;;;5090127;28;20371;-61
2022/08/13 12:01:41;;;;;;;;;;;30.30;36.70;;;;;;5089952;28;19924;-62
2022/08/13 12:04:10;;;;;;;;;;;30.50;35.10;;;;;;5087654;28;21288;-60
2022/08/13 12:06:35;;;;;;;;;;;30.40;35.70;;;;;;5090544;28;20013;-61
2022/08/13 12:09:02;;;;;;;;;;;30.70;35.40;;;;;;5088831;28;19956;-61
2022/08/13 12:11:29;;;;;;;;;;;30.80;35.90;;;;;;5088851;28;19920;-61
2022/08/13 12:13:56;;;;;;;;;;;30.90;35.90;;;;;;5088380;28;19921;-61
2022/08/13 12:16:22;;;;;;;;;;;31.00;35.90;;;;;;5083295;28;19927;-60
2022/08/13 12:18:47;;;;;;;;;;;31.00;36.20;;;;;;5084523;28;19928;-61
2022/08/13 12:21:13;;;;;;;;;;;31.20;35.90;;;;;;5087180;28;19951;-60
2022/08/13 12:23:38;;;;;;;;;;;31.30;35.10;;;;;;5090528;28;19931;-62
2022/08/13 12:26:04;;;;;;;;;;;31.40;34.70;;;;;;5092423;28;20453;-61
2022/08/13 12:28:29;;;;;;;;;;;31.30;34.40;;;;;;5087621;28;19926;-62
2022/08/13 12:30:56;;;;;;;;;;;31.40;35.70;;;;;;5088510;28;20406;-62
2022/08/13 12:33:22;;;;;;;;;;;31.50;34.60;;;;;;5089817;28;19924;-60
2022/08/13 12:35:48;;;;;;;;;;;31.80;35.50;;;;;;5117880;27;19924;-61
2022/08/13 12:38:14;;;;;;;;;;;31.80;34.60;;;;;;5082419;28;19928;-61
2022/08/13 12:40:40;;;;;;;;;;;31.90;35.80;;;;;;5087620;28;19920;-61
2022/08/13 12:43:06;;;;;;;;;;;31.60;34.50;;;;;;5091007;28;19924;-60
2022/08/13 12:45:34;;;;;;;;;;;32.10;34.90;;;;;;5090203;28;19928;-62
2022/08/13 12:48:15;;;;;;;;;;;32.40;34.60;;;;;;5090914;28;19931;-61
2022/08/13 12:50:42;;;;;;;;;;;33.30;33.40;;;;;;5083058;28;19924;-61
2022/08/13 12:53:08;;;;;;;;;;;34.10;32.90;;;;;;5090236;28;19920;-61
2022/08/13 12:55:34;;;;;;;;;;;35.50;32.60;;;;;;5089994;28;20500;-62
2022/08/13 12:58:13;;;;;;;;;;;36.70;31.70;;;;;;5091249;28;19935;-62
2022/08/13 13:00:39;;;;;;;;;;;38.10;29.80;;;;;;5090003;28;19928;-61
2022/08/13 13:03:05;;;;;;;;;;;37.90;29.60;;;;;;5091342;28;19928;-61
2022/08/13 13:05:30;;;;;;;;;;;37.60;29.20;;;;;;5086486;28;19932;-60
2022/08/13 13:07:56;;;;;;;;;;;37.30;28.20;;;;;;5091514;28;20026;-62
2022/08/13 13:10:21;;;;;;;;;;;36.80;29.10;;;;;;5091136;28;19949;-61
2022/08/13 13:12:47;;;;;;;;;;;37.10;29.00;;;;;;5089165;28;20380;-61
2022/08/13 13:15:12;;;;;;;;;;;38.10;28.90;;;;;;5091138;28;20459;-63
2022/08/13 13:17:38;;;;;;;;;;;38.90;28.70;;;;;;5091611;28;19935;-62
2022/08/13 13:20:04;;;;;;;;;;;38.60;28.40;;;;;;5085534;28;19924;-62
2022/08/13 13:22:30;;;;;;;;;;;38.40;28.20;;;;;;5084484;28;19929;-61
2022/08/13 13:24:55;;;;;;;;;;;39.40;27.60;;;;;;5070571;28;19921;-61
2022/08/13 13:27:21;;;;;;;;;;;40.90;27.80;;;;;;5071646;28;19925;-62
2022/08/13 13:29:47;;;;;;;;;;;40.20;27.20;;;;;;5081411;28;19977;-62
2022/08/13 13:32:13;;;;;;;;;;;41.70;26.80;;;;;;5089982;28;20355;-60
2022/08/13 13:34:43;;;;;;;;;;;42.40;26.30;;;;;;5088173;28;19920;-60
2022/08/13 13:37:12;;;;;;;;;;;42.70;25.60;;;;;;5090414;28;20368;-58
2022/08/13 13:39:38;;;;;;;;;;;43.00;25.60;;;;;;5090404;28;19924;-61
2022/08/13 13:42:04;;;;;;;;;;;43.20;25.60;;;;;;5089087;28;20953;-60
2022/08/13 13:44:29;;;;;;;;;;;43.20;26.10;;;;;;5090716;28;20003;-59
2022/08/13 13:46:55;;;;;;;;;;;42.70;26.00;;;;;;5091164;28;20391;-59
2022/08/13 13:49:20;;;;;;;;;;;42.90;26.00;;;;;;5089692;28;19924;-60
2022/08/13 13:51:46;;;;;;;;;;;42.50;25.60;;;;;;5089343;28;19967;-62
2022/08/13 13:54:12;;;;;;;;;;;41.60;26.20;;;;;;5088689;28;19927;-60
2022/08/13 13:56:38;;;;;;;;;;;42.40;26.20;;;;;;5091742;28;19924;-60
2022/08/13 13:59:04;;;;;;;;;;;42.50;25.80;;;;;;5091118;28;20326;-59
2022/08/13 14:01:29;;;;;;;;;;;43.00;25.70;;;;;;5087130;28;20207;-60
2022/08/13 14:03:56;;;;;;;;;;;42.60;25.40;;;;;;5089532;28;19923;-59
2022/08/13 14:06:22;;;;;;;;;;;43.40;25.90;;;;;;5088253;28;20391;-62
2022/08/13 14:08:50;;;;;;;;;;;43.80;25.80;;;;;;5090955;28;20013;-61
2022/08/13 14:11:16;;;;;;;;;;;42.90;25.40;;;;;;5073538;28;19932;-60
2022/08/13 14:13:42;;;;;;;;;;;41.20;24.40;;;;;;5090083;28;20283;-59
2022/08/13 14:16:10;;;;;;;;;;;41.10;25.20;;;;;;5091970;28;19931;-59
2022/08/13 14:18:38;;;;;;;;;;;41.50;25.70;;;;;;5086951;28;20014;-60
2022/08/13 14:21:03;;;;;;;;;;;42.00;25.80;;;;;;5089628;28;19952;-59
2022/08/13 14:23:29;;;;;;;;;;;42.20;25.80;;;;;;5092298;28;19928;-59
2022/08/13 14:25:56;;;;;;;;;;;42.20;25.70;;;;;;5093455;28;19920;-60
2022/08/13 14:28:22;;;;;;;;;;;42.20;24.90;;;;;;5094521;28;19920;-60
2022/08/13 14:30:49;;;;;;;;;;;42.20;25.10;;;;;;5094010;28;20245;-60
2022/08/13 14:33:15;;;;;;;;;;;42.10;25.30;;;;;;5092430;28;19924;-60
2022/08/13 14:35:42;;;;;;;;;;;41.50;25.40;;;;;;5075415;28;19924;-61